.
WxDataArchive / Data Records for 2015-02-18
2015-02-17 February 2015 2015-02-19

Data Records for Wednesday, 18 February 2015

Time	Temp	Chill	HIndex	Humid	Dewpt	 Wind 	HiWind	WindDir	Rain 	Barom
-----	----	-----	------	-----	-----	------	------	-------	-----	-----
00:00	11.4	11.4	11.4	69	3.2	0	2	248	0.00	29.908 
00:05	11.2	11.2	11.2	69	3.0	0	2	248	0.00	29.908 
00:10	11.2	11.2	11.2	69	3.0	0	2	248	0.00	29.908 
00:15	11.1	11.1	11.1	69	3.0	0	2	248	0.00	29.898 
00:20	11.1	11.1	11.1	69	3.0	0	2	248	0.00	29.898 
00:25	10.9	10.9	10.9	70	3.1	0	1	248	0.00	29.898 
00:30	10.7	10.7	10.7	70	2.9	0	1	248	0.00	29.897 
00:35	10.7	10.7	10.7	70	2.9	0	1	248	0.00	29.897 
00:40	10.7	10.7	10.7	71	3.2	0	2	248	0.00	29.897 
00:45	10.5	10.5	10.5	71	3.0	0	1	248	0.00	29.887 
00:50	10.5	10.5	10.5	71	3.0	0	1	248	0.00	29.887 
00:55	10.4	10.4	10.4	71	2.9	0	1	248	0.00	29.887 
01:00	10.2	10.2	10.2	71	2.7	0	1	248	0.00	29.885 
01:05	10.0	10.0	10.0	71	2.5	0	0	---	0.00	29.885 
01:10	9.7	9.7	9.7	71	2.2	0	1	248	0.00	29.885 
01:15	9.3	9.3	9.3	72	2.1	0	0	---	0.00	29.878 
01:20	9.2	9.2	9.2	72	2.0	0	0	---	0.00	29.878 
01:25	9.0	9.0	9.0	73	2.1	0	0	---	0.00	29.878 
01:30	9.0	9.0	9.0	73	2.1	0	1	248	0.00	29.867 
01:35	8.8	8.8	8.8	73	1.9	0	0	---	0.00	29.867 
01:40	8.8	8.8	8.8	74	2.2	0	1	248	0.00	29.867 
01:45	8.8	8.8	8.8	74	2.2	0	1	248	0.00	29.869 
01:50	9.0	9.0	9.0	74	2.4	0	2	248	0.00	29.869 
01:55	9.2	9.2	9.2	75	2.9	0	1	248	0.00	29.869 
02:00	9.7	9.7	9.7	75	3.4	1	3	248	0.00	29.865 
02:05	10.0	10.0	10.0	74	3.4	1	3	248	0.00	29.865 
02:10	10.2	10.2	10.2	73	3.3	0	2	248	0.00	29.865 
02:15	10.2	10.2	10.2	73	3.3	0	2	248	0.00	29.850 
02:20	10.2	10.2	10.2	72	3.0	0	2	248	0.00	29.850 
02:25	10.2	10.2	10.2	72	3.0	0	2	248	0.00	29.850 
02:30	10.0	10.0	10.0	72	2.8	0	2	248	0.00	29.859 
02:35	10.0	10.0	10.0	72	2.8	1	3	248	0.00	29.859 
02:40	10.0	10.0	10.0	72	2.8	0	2	248	0.00	29.859 
02:45	10.2	10.2	10.2	71	2.7	0	3	248	0.00	29.851 
02:50	10.2	10.2	10.2	71	2.7	0	2	248	0.00	29.851 
02:55	10.4	10.4	10.4	71	2.9	1	3	248	0.00	29.851 
03:00	10.2	10.2	10.2	71	2.7	0	2	248	0.00	29.848 
03:05	10.2	10.2	10.2	70	2.4	0	2	248	0.00	29.848 
03:10	10.2	10.2	10.2	71	2.7	0	2	248	0.00	29.848 
03:15	10.2	10.2	10.2	71	2.7	0	2	248	0.00	29.838 
03:20	10.2	10.2	10.2	71	2.7	0	1	248	0.00	29.838 
03:25	10.4	10.4	10.4	71	2.9	0	3	248	0.00	29.838 
03:30	10.4	10.4	10.4	71	2.9	0	2	248	0.00	29.828 
03:35	10.5	10.5	10.5	71	3.0	0	2	248	0.00	29.828 
03:40	10.5	10.5	10.5	71	3.0	0	2	248	0.00	29.828 
03:45	10.7	10.7	10.7	70	2.9	0	2	248	0.00	29.824 
03:50	10.7	10.7	10.7	70	2.9	0	2	248	0.00	29.824 
03:55	10.9	10.9	10.9	70	3.1	0	2	248	0.00	29.824 
04:00	10.9	10.9	10.9	69	2.8	1	3	248	0.00	29.817 
04:05	11.1	11.1	11.1	69	3.0	0	1	248	0.00	29.817 
04:10	11.1	11.1	11.1	69	3.0	0	3	248	0.00	29.817 
04:15	11.1	11.1	11.1	69	3.0	0	2	248	0.00	29.816 
04:20	11.1	11.1	11.1	69	3.0	0	3	248	0.00	29.816 
04:25	11.1	11.1	11.1	68	2.6	0	2	248	0.00	29.816 
04:30	11.1	11.1	11.1	69	3.0	0	2	248	0.00	29.815 
04:35	11.1	11.1	11.1	69	3.0	0	2	248	0.00	29.815 
04:40	11.1	11.1	11.1	68	2.6	1	3	248	0.00	29.815 
04:45	11.1	11.1	11.1	68	2.6	1	3	248	0.00	29.816 
04:50	11.1	11.1	11.1	68	2.6	1	3	248	0.00	29.816 
04:55	11.1	11.1	11.1	68	2.6	0	3	248	0.00	29.816 
05:00	11.1	11.1	11.1	68	2.6	1	3	248	0.00	29.817 
05:05	11.1	11.1	11.1	67	2.3	1	3	248	0.00	29.817 
05:10	11.1	11.1	11.1	67	2.3	1	3	248	0.00	29.817 
05:15	11.1	11.1	11.1	67	2.3	1	4	248	0.00	29.818 
05:20	11.1	11.1	11.1	67	2.3	1	3	248	0.00	29.818 
05:25	11.1	11.1	11.1	67	2.3	1	3	248	0.00	29.818 
05:30	10.9	10.9	10.9	67	2.1	1	3	248	0.00	29.819 
05:35	10.9	10.9	10.9	67	2.1	1	4	248	0.00	29.819 
05:40	10.9	10.9	10.9	67	2.1	1	4	248	0.00	29.819 
05:45	10.7	10.7	10.7	66	1.6	1	4	248	0.00	29.818 
05:50	10.7	10.7	10.7	66	1.6	0	2	248	0.00	29.818 
05:55	10.5	10.5	10.5	66	1.4	1	2	248	0.00	29.818 
06:00	10.5	10.5	10.5	66	1.4	1	3	248	0.00	29.820 
06:05	10.5	10.5	10.5	66	1.4	1	3	248	0.00	29.820 
06:10	10.4	10.4	10.4	65	1.0	1	5	292	0.00	29.820 
06:15	10.4	10.4	10.4	65	1.0	1	3	292	0.00	29.822 
06:20	10.2	10.2	10.2	65	0.8	1	4	292	0.00	29.822 
06:25	10.2	10.2	10.2	65	0.8	1	4	270	0.00	29.822 
06:30	10.0	10.0	10.0	64	0.3	2	4	270	0.00	29.821 
06:35	10.0	10.0	10.0	64	0.3	2	3	270	0.00	29.821 
06:40	9.9	9.9	9.9	64	0.2	2	6	270	0.00	29.821 
06:45	9.9	9.9	9.9	64	0.2	2	5	270	0.00	29.820 
06:50	9.9	9.9	9.9	64	0.2	2	3	270	0.00	29.820 
06:55	9.7	9.7	9.7	64	0.0	1	3	270	0.00	29.820 
07:00	9.5	9.5	9.5	64	-0.2	1	4	248	0.00	29.820 
07:05	9.3	9.3	9.3	63	-0.7	2	4	248	0.00	29.820 
07:10	9.2	9.2	9.2	63	-0.8	2	4	248	0.00	29.820 
07:15	9.0	9.0	9.0	62	-1.3	2	7	270	0.00	29.828 
07:20	8.8	8.8	8.8	62	-1.5	1	2	270	0.00	29.828 
07:25	8.6	8.6	8.6	63	-1.4	1	4	270	0.00	29.828 
07:30	8.6	8.6	8.6	63	-1.4	1	4	248	0.00	29.831 
07:35	8.6	8.6	8.6	63	-1.4	1	3	270	0.00	29.831 
07:40	8.4	8.4	8.4	63	-1.6	1	3	270	0.00	29.831 
07:45	8.4	8.4	8.4	64	-1.2	1	3	270	0.00	29.838 
07:50	8.1	8.1	8.1	63	-1.9	2	5	270	0.00	29.838 
07:55	7.9	7.9	7.9	63	-2.0	1	3	270	0.00	29.838 
08:00	7.7	7.7	7.7	63	-2.2	1	4	248	0.00	29.840 
08:05	7.7	7.7	7.7	63	-2.2	1	4	248	0.00	29.840 
08:10	7.6	7.6	7.6	64	-2.0	1	3	248	0.00	29.840 
08:15	7.6	7.6	7.6	64	-2.0	1	3	248	0.00	29.847 
08:20	7.4	7.4	7.4	64	-2.2	2	3	248	0.00	29.847 
08:25	7.4	7.4	7.4	63	-2.5	1	3	248	0.00	29.847 
08:30	7.6	7.6	7.6	63	-2.3	1	3	248	0.00	29.854 
08:35	7.4	7.4	7.4	63	-2.5	1	4	248	0.00	29.854 
08:40	7.4	7.4	7.4	62	-2.9	2	3	248	0.00	29.854 
08:45	7.4	7.4	7.4	62	-2.9	1	3	248	0.00	29.860 
08:50	7.6	7.6	7.6	62	-2.7	2	4	248	0.00	29.860 
08:55	7.7	7.7	7.7	62	-2.6	2	4	248	0.00	29.860 
09:00	7.9	7.9	7.9	62	-2.4	1	4	248	0.00	29.861 
09:05	8.3	8.3	8.3	61	-2.3	2	4	248	0.00	29.861 
09:10	8.4	8.4	8.4	61	-2.2	2	5	248	0.00	29.861 
09:15	8.4	8.4	8.4	60	-2.6	3	6	270	0.00	29.864 
09:20	8.6	8.6	8.6	60	-2.4	2	5	292	0.00	29.864 
09:25	8.6	8.6	8.6	59	-2.8	3	6	270	0.00	29.864 
09:30	8.8	8.8	8.8	59	-2.6	3	7	270	0.00	29.870 
09:35	9.2	9.2	9.2	58	-2.5	3	6	270	0.00	29.870 
09:40	9.2	9.2	9.2	58	-2.5	3	6	270	0.00	29.870 
09:45	9.3	9.3	9.3	57	-2.8	3	7	270	0.00	29.872 
09:50	9.5	9.5	9.5	57	-2.6	3	6	270	0.00	29.872 
09:55	9.7	9.7	9.7	57	-2.4	3	7	270	0.00	29.872 
10:00	9.9	9.9	9.9	57	-2.2	3	6	270	0.00	29.872 
10:05	9.9	9.9	9.9	56	-2.6	3	6	270	0.00	29.872 
10:10	9.9	9.9	9.9	56	-2.6	3	11	270	0.00	29.872 
10:15	10.0	10.0	10.0	55	-2.9	3	6	270	0.00	29.875 
10:20	10.2	10.2	10.2	54	-3.1	3	6	270	0.00	29.875 
10:25	10.2	2.9	10.2	54	-3.1	4	12	270	0.00	29.875 
10:30	10.5	10.5	10.5	54	-2.8	2	5	248	0.00	29.872 
10:35	10.7	10.7	10.7	53	-3.0	3	7	270	0.00	29.872 
10:40	10.9	10.9	10.9	53	-2.8	3	6	248	0.00	29.872 
10:45	11.2	11.2	11.2	53	-2.6	2	6	270	0.00	29.873 
10:50	11.4	11.4	11.4	52	-2.8	3	5	270	0.00	29.873 
10:55	11.4	11.4	11.4	51	-3.2	3	6	270	0.00	29.873 
11:00	11.6	11.6	11.6	51	-3.0	3	7	270	0.00	29.878 
11:05	11.6	4.5	11.6	50	-3.4	4	7	270	0.00	29.878 
11:10	11.4	4.3	11.4	51	-3.2	4	9	270	0.00	29.878 
11:15	11.6	11.6	11.6	52	-2.6	3	6	270	0.00	29.889 
11:20	11.9	11.9	11.9	52	-2.3	3	6	248	0.00	29.889 
11:25	12.1	5.1	12.1	52	-2.1	4	7	270	0.00	29.889 
11:30	12.3	12.3	12.3	52	-1.9	3	8	270	0.00	29.890 
11:35	12.4	12.4	12.4	50	-2.7	3	10	270	0.00	29.890 
11:40	12.3	5.3	12.3	49	-3.2	4	10	270	0.00	29.890 
11:45	12.1	5.1	12.1	48	-3.8	4	7	270	0.00	29.894 
11:50	12.1	12.1	12.1	49	-3.4	3	7	270	0.00	29.894 
11:55	12.1	5.1	12.1	48	-3.8	4	9	270	0.00	29.894 
12:00	12.4	12.4	12.4	49	-3.1	3	6	270	0.00	29.897 
12:05	12.6	12.6	12.6	48	-3.3	3	6	248	0.00	29.897 
12:10	12.4	5.4	12.4	46	-4.4	4	8	270	0.00	29.897 
12:15	12.4	5.4	12.4	46	-4.4	4	7	270	0.00	29.904 
12:20	12.6	5.7	12.6	46	-4.2	4	6	270	0.00	29.904 
12:25	12.8	5.9	12.8	46	-4.0	4	9	270	0.00	29.904 
12:30	12.6	5.7	12.6	45	-4.7	4	10	270	0.00	29.905 
12:35	12.4	12.4	12.4	46	-4.4	3	6	292	0.00	29.905 
12:40	12.3	5.3	12.3	46	-4.5	4	9	270	0.00	29.905 
12:45	12.4	5.4	12.4	47	-3.9	4	6	270	0.00	29.905 
12:50	12.9	12.9	12.9	47	-3.5	3	10	270	0.00	29.905 
12:55	12.9	6.0	12.9	47	-3.5	4	11	270	0.00	29.905 
13:00	12.9	6.0	12.9	46	-3.9	4	7	270	0.00	29.906 
13:05	12.9	6.0	12.9	46	-3.9	4	10	270	0.00	29.906 
13:10	12.9	6.0	12.9	48	-3.0	4	10	270	0.00	29.906 
13:15	12.8	5.9	12.8	47	-3.6	4	10	270	0.00	29.909 
13:20	12.6	5.7	12.6	48	-3.3	4	7	270	0.00	29.909 
13:25	12.6	5.7	12.6	48	-3.3	4	9	270	0.00	29.909 
13:30	12.8	5.9	12.8	49	-2.7	4	6	270	0.00	29.913 
13:35	13.1	13.1	13.1	49	-2.4	3	7	270	0.00	29.913 
13:40	12.9	4.6	12.9	48	-3.0	5	9	270	0.00	29.913 
13:45	12.9	4.6	12.9	48	-3.0	5	8	270	0.00	29.917 
13:50	13.1	6.2	13.1	49	-2.4	4	7	270	0.00	29.917 
13:55	12.9	6.0	12.9	48	-3.0	4	8	270	0.00	29.917 
14:00	12.8	4.5	12.8	49	-2.7	5	10	270	0.00	29.920 
14:05	13.1	6.2	13.1	47	-3.3	4	9	270	0.00	29.920 
14:10	13.3	6.5	13.3	48	-2.7	4	11	270	0.00	29.920 
14:15	13.1	3.7	13.1	48	-2.9	6	11	270	0.00	29.926 
14:20	12.9	6.0	12.9	49	-2.6	4	9	270	0.00	29.926 
14:25	12.8	4.5	12.8	49	-2.7	5	12	270	0.00	29.926 
14:30	12.6	4.3	12.6	50	-2.5	5	10	270	0.00	29.936 
14:35	12.9	6.0	12.9	50	-2.2	4	7	270	0.00	29.936 
14:40	12.9	6.0	12.9	49	-2.6	4	9	270	0.00	29.936 
14:45	12.9	6.0	12.9	50	-2.2	4	8	270	0.00	29.940 
14:50	13.3	6.5	13.3	48	-2.7	4	9	270	0.00	29.940 
14:55	13.1	4.9	13.1	48	-2.9	5	8	270	0.00	29.940 
15:00	13.1	6.2	13.1	48	-2.9	4	9	270	0.00	29.951 
15:05	12.8	4.5	12.8	48	-3.1	5	10	270	0.00	29.951 
15:10	12.8	4.5	12.8	49	-2.7	5	10	270	0.00	29.951 
15:15	12.9	6.0	12.9	49	-2.6	4	7	270	0.00	29.954 
15:20	12.4	2.9	12.4	49	-3.1	6	16	270	0.00	29.954 
15:25	12.6	4.3	12.6	50	-2.5	5	8	270	0.00	29.954 
15:30	12.6	4.3	12.6	50	-2.5	5	12	270	0.00	29.958 
15:35	12.8	5.9	12.8	51	-1.9	4	10	270	0.00	29.958 
15:40	12.6	5.7	12.6	50	-2.5	4	7	270	0.00	29.958 
15:45	12.6	4.3	12.6	50	-2.5	5	10	270	0.00	29.968 
15:50	12.8	5.9	12.8	51	-1.9	4	7	270	0.00	29.968 
15:55	12.8	5.9	12.8	50	-2.3	4	10	270	0.00	29.968 
16:00	12.6	4.3	12.6	50	-2.5	5	9	270	0.00	29.979 
16:05	12.6	5.7	12.6	51	-2.1	4	11	270	0.00	29.979 
16:10	12.4	5.4	12.4	51	-2.2	4	7	270	0.00	29.979 
16:15	12.1	5.1	12.1	51	-2.5	4	13	270	0.00	29.998 
16:20	11.7	4.6	11.7	52	-2.5	4	13	270	0.00	29.998 
16:25	11.6	4.5	11.6	52	-2.6	4	8	270	0.00	29.998 
16:30	11.6	4.5	11.6	53	-2.2	4	12	292	0.00	30.003 
16:35	11.4	2.9	11.4	53	-2.4	5	12	270	0.00	30.003 
16:40	11.6	11.6	11.6	53	-2.2	3	6	270	0.00	30.003 
16:45	11.6	4.5	11.6	53	-2.2	4	10	270	0.00	30.015 
16:50	11.4	11.4	11.4	53	-2.4	3	7	270	0.00	30.015 
16:55	11.6	4.5	11.6	52	-2.6	4	10	270	0.00	30.015 
17:00	11.1	2.5	11.1	53	-2.6	5	10	270	0.00	30.020 
17:05	10.9	2.3	10.9	52	-3.2	5	10	270	0.00	30.020 
17:10	11.1	11.1	11.1	53	-2.6	3	7	292	0.00	30.020 
17:15	10.9	3.7	10.9	54	-2.4	4	9	270	0.00	30.032 
17:20	10.7	10.7	10.7	54	-2.6	3	9	270	0.00	30.032 
17:25	10.5	3.2	10.5	54	-2.8	4	10	270	0.00	30.032 
17:30	10.5	10.5	10.5	54	-2.8	3	6	270	0.00	30.039 
17:35	10.4	10.4	10.4	54	-2.9	3	9	270	0.00	30.039 
17:40	10.2	2.9	10.2	54	-3.1	4	8	270	0.00	30.039 
17:45	10.0	2.7	10.0	54	-3.3	4	7	270	0.00	30.053 
17:50	9.9	9.9	9.9	53	-3.8	3	9	270	0.00	30.053 
17:55	9.7	9.7	9.7	54	-3.6	2	4	270	0.00	30.053 
18:00	9.5	2.1	9.5	53	-4.1	4	12	270	0.00	30.065 
18:05	9.3	1.9	9.3	52	-4.7	4	7	270	0.00	30.065 
18:10	9.0	1.5	9.0	52	-5.0	4	8	270	0.00	30.065 
18:15	8.8	8.8	8.8	52	-5.2	3	8	270	0.00	30.080 
18:20	8.6	1.0	8.6	51	-5.8	4	10	270	0.00	30.080 
18:25	8.6	1.0	8.6	51	-5.8	4	7	270	0.00	30.080 
18:30	8.6	8.6	8.6	51	-5.8	3	5	270	0.00	30.086 
18:35	8.4	8.4	8.4	51	-6.0	3	6	270	0.00	30.086 
18:40	8.4	8.4	8.4	51	-6.0	2	5	270	0.00	30.086 
18:45	8.4	8.4	8.4	52	-5.6	2	7	270	0.00	30.098 
18:50	8.3	8.3	8.3	52	-5.7	2	5	270	0.00	30.098 
18:55	8.3	8.3	8.3	52	-5.7	2	5	270	0.00	30.098 
19:00	8.1	8.1	8.1	51	-6.2	3	9	270	0.00	30.103 
19:05	8.1	8.1	8.1	52	-5.8	3	6	270	0.00	30.103 
19:10	7.9	7.9	7.9	53	-5.6	3	6	292	0.00	30.103 
19:15	7.9	0.2	7.9	53	-5.6	4	10	270	0.00	30.115 
19:20	7.7	7.7	7.7	54	-5.4	3	6	270	0.00	30.115 
19:25	7.6	7.6	7.6	53	-5.9	3	7	270	0.00	30.115 
19:30	7.6	7.6	7.6	54	-5.5	2	4	270	0.00	30.119 
19:35	7.4	7.4	7.4	53	-6.1	2	6	270	0.00	30.119 
19:40	7.2	7.2	7.2	53	-6.3	2	6	248	0.00	30.119 
19:45	7.2	7.2	7.2	54	-5.9	2	4	248	0.00	30.125 
19:50	7.0	7.0	7.0	54	-6.1	2	6	270	0.00	30.125 
19:55	6.9	6.9	6.9	54	-6.2	2	5	270	0.00	30.125 
20:00	6.7	6.7	6.7	54	-6.4	2	7	292	0.00	30.133 
20:05	6.5	6.5	6.5	53	-6.9	2	4	270	0.00	30.133 
20:10	6.3	6.3	6.3	53	-7.1	1	4	248	0.00	30.133 
20:15	6.1	6.1	6.1	53	-7.3	2	4	270	0.00	30.136 
20:20	6.0	6.0	6.0	53	-7.4	2	4	270	0.00	30.136 
20:25	6.0	6.0	6.0	53	-7.4	2	4	270	0.00	30.136 
20:30	5.8	5.8	5.8	54	-7.2	2	4	248	0.00	30.141 
20:35	5.6	5.6	5.6	54	-7.4	1	4	270	0.00	30.141 
20:40	5.6	5.6	5.6	55	-7.0	1	4	270	0.00	30.141 
20:45	5.4	5.4	5.4	55	-7.2	3	10	270	0.00	30.146 
20:50	5.2	5.2	5.2	55	-7.4	2	7	270	0.00	30.146 
20:55	5.2	5.2	5.2	55	-7.4	3	7	292	0.00	30.146 
21:00	5.0	5.0	5.0	55	-7.6	2	5	270	0.00	30.153 
21:05	5.0	5.0	5.0	56	-7.2	2	5	270	0.00	30.153 
21:10	4.8	4.8	4.8	57	-7.0	2	5	270	0.00	30.153 
21:15	4.7	4.7	4.7	58	-6.8	2	5	270	0.00	30.153 
21:20	4.7	4.7	4.7	58	-6.8	2	5	270	0.00	30.153 
21:25	4.5	4.5	4.5	58	-7.0	2	5	270	0.00	30.153 
21:30	4.5	4.5	4.5	59	-6.6	3	5	270	0.00	30.155 
21:35	4.5	4.5	4.5	59	-6.6	2	4	270	0.00	30.155 
21:40	4.3	4.3	4.3	59	-6.8	2	5	270	0.00	30.155 
21:45	4.1	4.1	4.1	59	-7.0	2	5	270	0.00	30.160 
21:50	4.1	4.1	4.1	59	-7.0	2	5	270	0.00	30.160 
21:55	3.9	3.9	3.9	59	-7.2	1	3	270	0.00	30.160 
22:00	3.9	3.9	3.9	60	-6.8	3	5	270	0.00	30.166 
22:05	3.7	3.7	3.7	60	-7.0	2	4	270	0.00	30.166 
22:10	3.7	3.7	3.7	60	-7.0	2	4	270	0.00	30.166 
22:15	3.5	3.5	3.5	61	-6.9	2	4	270	0.00	30.166 
22:20	3.5	3.5	3.5	61	-6.9	1	3	270	0.00	30.166 
22:25	3.4	3.4	3.4	61	-7.0	1	4	270	0.00	30.166 
22:30	3.2	3.2	3.2	61	-7.2	1	5	315	0.00	30.168 
22:35	3.2	3.2	3.2	62	-6.8	1	3	292	0.00	30.168 
22:40	3.2	3.2	3.2	62	-6.8	1	4	270	0.00	30.168 
22:45	3.0	3.0	3.0	62	-7.0	1	2	270	0.00	30.169 
22:50	3.0	3.0	3.0	62	-7.0	1	4	270	0.00	30.169 
22:55	2.8	2.8	2.8	62	-7.2	1	4	270	0.00	30.169 
23:00	2.8	2.8	2.8	62	-7.2	1	4	270	0.00	30.170 
23:05	2.8	2.8	2.8	62	-7.2	2	4	270	0.00	30.170 
23:10	2.6	2.6	2.6	62	-7.4	2	4	270	0.00	30.170 
23:15	2.6	2.6	2.6	62	-7.4	3	5	270	0.00	30.171 
23:20	2.4	2.4	2.4	63	-7.3	2	4	270	0.00	30.171 
23:25	2.4	2.4	2.4	63	-7.3	1	3	270	0.00	30.171 
23:30	2.2	2.2	2.2	63	-7.5	2	5	270	0.00	30.171 
23:35	2.0	2.0	2.0	64	-7.3	1	3	270	0.00	30.171 
23:40	2.0	2.0	2.0	64	-7.3	1	4	248	0.00	30.171 
23:45	1.8	1.8	1.8	64	-7.5	1	4	292	0.00	30.170 
23:50	1.8	1.8	1.8	64	-7.5	1	3	270	0.00	30.170 
23:55	1.7	1.7	1.7	65	-7.3	1	4	270	0.00	30.170 

CoCoRaHS
IN-AL-39
A2 Web Hosting
Creative Commons License
GoDaddy
search engine by freefind advanced

loaded 2018-11-15 14:02:10 • last modified 2010-11-18 10:43:29
Privacy PolicyDisclaimer
• wx.awcolley.com is powered by PmWiki v.2002016 •
• all content (unless otherwise noted) © 2018 A W Colley